This is the latest recevied weather packets stored in our database for station/object SQ5BUJ-13. If no packets are shown the sender has not sent any weather packets the latest 10 day(s).
| Time | Temp. | Humidity | Pressure | Rain* | Wind** | Luminosity | Snow |
|---|---|---|---|---|---|---|---|
| 1777801213 | 23.89° C | 25% | 1017.9 hPa | - | - | - | - |
| 1777798853 | 22.78° C | 28% | 1018.1 hPa | - | - | - | - |
| 1777796358 | 22.78° C | 28% | 1018.1 hPa | - | - | - | - |
| 1777789058 | 18.33° C | 40% | 1018.5 hPa | - | - | - | - |
| 1777784218 | 8.89° C | 74% | 1019 hPa | - | - | - | - |
| 1777781698 | 8.89° C | 74% | 1019 hPa | - | - | - | - |
| 1777779233 | 8.33° C | 79% | 1019 hPa | - | - | - | - |
| 1777776927 | 8.33° C | 74% | 1018.9 hPa | - | - | - | - |
| 1777769563 | 9.44° C | 69% | 1019 hPa | - | - | - | - |
| 1777767293 | 9.44° C | 69% | 1019 hPa | - | - | - | - |
| 1777764948 | 10.56° C | 58% | 1019.2 hPa | - | - | - | - |
| 1777762678 | 11.67° C | 56% | 1019.3 hPa | - | - | - | - |
| 1777755502 | 16.11° C | 42% | 1019.4 hPa | - | - | - | - |
| 1777750768 | 18.89° C | 34% | 1019.5 hPa | - | - | - | - |
| 1777748323 | 20.56° C | 28% | 1019.2 hPa | - | - | - | - |
| 1777743713 | 23.33° C | 22% | 1019.2 hPa | - | - | - | - |
| 1777741353 | 24.44° C | 22% | 1019.6 hPa | - | - | - | - |
| 1777736233 | 24.44° C | 22% | 1020.3 hPa | - | - | - | - |
| 1777728998 | 23.89° C | 22% | 1021.6 hPa | - | - | - | - |
| 1777724104 | 23.33° C | 25% | 1022.4 hPa | - | - | - | - |
| 1777721576 | 22.78° C | 26% | 1023.1 hPa | - | - | - | - |
| 1777719103 | 22.78° C | 28% | 1023.7 hPa | - | - | - | - |
| 1777716823 | 21.67° C | 30% | 1024.1 hPa | - | - | - | - |
| 1777714463 | 21.67° C | 30% | 1024.1 hPa | - | - | - | - |
| 1777712037 | 19.44° C | 34% | 1024.7 hPa | - | - | - | - |
* Rain since midnight (hover to see other rain measurements)
** Current wind speed in m/s (hover to see current wind gust speed)